sensor_id;sensor_type;location;lat;lon;timestamp;P1;durP1;ratioP1;P2;durP2;ratioP2
68653;SDS011;55636;51.108;13.622;2023-07-22T00:00:57;3.20;;;2.90;;
68653;SDS011;55636;51.108;13.622;2023-07-22T00:02:00;4.15;;;2.97;;
68653;SDS011;55636;51.108;13.622;2023-07-22T00:03:02;4.22;;;3.10;;
68653;SDS011;55636;51.108;13.622;2023-07-22T00:04:05;3.75;;;3.13;;
68653;SDS011;55636;51.108;13.622;2023-07-22T00:05:09;3.13;;;2.80;;
68653;SDS011;55636;51.108;13.622;2023-07-22T00:06:14;3.00;;;2.70;;
68653;SDS011;55636;51.108;13.622;2023-07-22T00:07:17;3.38;;;3.08;;
68653;SDS011;55636;51.108;13.622;2023-07-22T00:08:19;3.85;;;2.53;;
68653;SDS011;55636;51.108;13.622;2023-07-22T00:09:25;3.22;;;2.90;;
68653;SDS011;55636;51.108;13.622;2023-07-22T00:10:27;3.70;;;2.90;;
68653;SDS011;55636;51.108;13.622;2023-07-22T00:11:30;5.65;;;3.28;;
68653;SDS011;55636;51.108;13.622;2023-07-22T00:12:35;3.17;;;2.88;;
68653;SDS011;55636;51.108;13.622;2023-07-22T00:13:39;3.78;;;2.95;;
68653;SDS011;55636;51.108;13.622;2023-07-22T00:14:41;3.65;;;3.10;;
68653;SDS011;55636;51.108;13.622;2023-07-22T00:15:45;3.22;;;2.92;;
68653;SDS011;55636;51.108;13.622;2023-07-22T00:16:47;6.32;;;3.20;;
68653;SDS011;55636;51.108;13.622;2023-07-22T00:17:50;3.58;;;2.97;;
68653;SDS011;55636;51.108;13.622;2023-07-22T00:18:53;3.30;;;3.00;;
68653;SDS011;55636;51.108;13.622;2023-07-22T00:19:55;3.17;;;2.83;;
68653;SDS011;55636;51.108;13.622;2023-07-22T00:20:58;3.78;;;3.10;;
68653;SDS011;55636;51.108;13.622;2023-07-22T00:22:00;6.00;;;3.25;;
68653;SDS011;55636;51.108;13.622;2023-07-22T00:23:04;3.63;;;3.03;;
68653;SDS011;55636;51.108;13.622;2023-07-22T00:24:07;4.15;;;3.08;;
68653;SDS011;55636;51.108;13.622;2023-07-22T00:25:10;4.07;;;2.78;;
68653;SDS011;55636;51.108;13.622;2023-07-22T00:26:13;4.53;;;2.90;;
68653;SDS011;55636;51.108;13.622;2023-07-22T00:27:16;4.10;;;3.22;;
68653;SDS011;55636;51.108;13.622;2023-07-22T00:28:18;5.90;;;3.40;;
68653;SDS011;55636;51.108;13.622;2023-07-22T00:29:21;4.55;;;3.13;;
68653;SDS011;55636;51.108;13.622;2023-07-22T00:30:24;3.28;;;2.97;;
68653;SDS011;55636;51.108;13.622;2023-07-22T00:31:29;3.47;;;3.00;;
68653;SDS011;55636;51.108;13.622;2023-07-22T00:32:31;3.60;;;3.00;;
68653;SDS011;55636;51.108;13.622;2023-07-22T00:33:34;4.15;;;2.92;;
68653;SDS011;55636;51.108;13.622;2023-07-22T00:34:36;4.10;;;2.95;;
68653;SDS011;55636;51.108;13.622;2023-07-22T00:35:39;5.93;;;3.20;;
68653;SDS011;55636;51.108;13.622;2023-07-22T00:36:41;5.38;;;3.20;;
68653;SDS011;55636;51.108;13.622;2023-07-22T00:37:44;5.10;;;3.05;;
68653;SDS011;55636;51.108;13.622;2023-07-22T00:38:46;3.70;;;3.30;;
68653;SDS011;55636;51.108;13.622;2023-07-22T00:39:49;4.07;;;3.22;;
68653;SDS011;55636;51.108;13.622;2023-07-22T00:40:51;4.88;;;3.13;;
68653;SDS011;55636;51.108;13.622;2023-07-22T00:41:54;5.57;;;3.38;;
68653;SDS011;55636;51.108;13.622;2023-07-22T00:42:57;5.13;;;3.40;;
68653;SDS011;55636;51.108;13.622;2023-07-22T00:44:01;5.63;;;3.00;;
68653;SDS011;55636;51.108;13.622;2023-07-22T00:45:04;4.30;;;2.92;;
68653;SDS011;55636;51.108;13.622;2023-07-22T00:46:08;3.75;;;2.80;;
68653;SDS011;55636;51.108;13.622;2023-07-22T00:47:10;5.05;;;3.17;;
68653;SDS011;55636;51.108;13.622;2023-07-22T00:48:13;6.18;;;3.25;;
68653;SDS011;55636;51.108;13.622;2023-07-22T00:49:17;3.40;;;3.00;;
68653;SDS011;55636;51.108;13.622;2023-07-22T00:50:19;5.55;;;3.00;;
68653;SDS011;55636;51.108;13.622;2023-07-22T00:51:23;3.58;;;2.92;;
68653;SDS011;55636;51.108;13.622;2023-07-22T00:52:26;4.20;;;2.90;;
68653;SDS011;55636;51.108;13.622;2023-07-22T00:53:28;5.30;;;3.20;;
68653;SDS011;55636;51.108;13.622;2023-07-22T00:54:31;3.33;;;3.03;;
68653;SDS011;55636;51.108;13.622;2023-07-22T00:55:33;4.35;;;2.95;;
68653;SDS011;55636;51.108;13.622;2023-07-22T00:56:37;4.28;;;3.45;;
68653;SDS011;55636;51.108;13.622;2023-07-22T00:57:42;4.43;;;3.13;;
68653;SDS011;55636;51.108;13.622;2023-07-22T00:58:44;5.30;;;3.20;;
68653;SDS011;55636;51.108;13.622;2023-07-22T00:59:47;6.95;;;3.20;;
68653;SDS011;55636;51.108;13.622;2023-07-22T01:00:50;7.85;;;2.92;;
68653;SDS011;55636;51.108;13.622;2023-07-22T01:01:55;4.00;;;3.05;;
68653;SDS011;55636;51.108;13.622;2023-07-22T01:02:58;7.13;;;3.10;;
68653;SDS011;55636;51.108;13.622;2023-07-22T01:04:01;8.02;;;3.35;;
68653;SDS011;55636;51.108;13.622;2023-07-22T01:05:04;5.55;;;3.10;;
68653;SDS011;55636;51.108;13.622;2023-07-22T01:06:09;6.15;;;3.00;;
68653;SDS011;55636;51.108;13.622;2023-07-22T01:07:14;3.47;;;3.10;;
68653;SDS011;55636;51.108;13.622;2023-07-22T01:08:17;4.28;;;2.80;;
68653;SDS011;55636;51.108;13.622;2023-07-22T01:09:20;3.53;;;3.20;;
68653;SDS011;55636;51.108;13.622;2023-07-22T01:10:22;4.97;;;3.20;;
68653;SDS011;55636;51.108;13.622;2023-07-22T01:11:25;5.90;;;3.35;;
68653;SDS011;55636;51.108;13.622;2023-07-22T01:12:27;6.03;;;3.30;;
68653;SDS011;55636;51.108;13.622;2023-07-22T01:13:30;7.00;;;3.50;;
68653;SDS011;55636;51.108;13.622;2023-07-22T01:14:33;3.80;;;3.10;;
68653;SDS011;55636;51.108;13.622;2023-07-22T01:15:36;5.38;;;3.17;;
68653;SDS011;55636;51.108;13.622;2023-07-22T01:16:39;7.95;;;3.38;;
68653;SDS011;55636;51.108;13.622;2023-07-22T01:17:42;4.78;;;3.08;;
68653;SDS011;55636;51.108;13.622;2023-07-22T01:18:46;4.50;;;3.25;;
68653;SDS011;55636;51.108;13.622;2023-07-22T01:19:49;5.75;;;3.08;;
68653;SDS011;55636;51.108;13.622;2023-07-22T01:20:53;5.43;;;3.30;;
68653;SDS011;55636;51.108;13.622;2023-07-22T01:21:59;7.63;;;3.03;;
68653;SDS011;55636;51.108;13.622;2023-07-22T01:23:04;3.67;;;3.03;;
68653;SDS011;55636;51.108;13.622;2023-07-22T01:24:06;7.28;;;3.50;;
68653;SDS011;55636;51.108;13.622;2023-07-22T01:25:09;5.03;;;2.97;;
68653;SDS011;55636;51.108;13.622;2023-07-22T01:26:12;5.13;;;3.13;;
68653;SDS011;55636;51.108;13.622;2023-07-22T01:27:14;6.93;;;3.28;;
68653;SDS011;55636;51.108;13.622;2023-07-22T01:28:17;7.18;;;3.22;;
68653;SDS011;55636;51.108;13.622;2023-07-22T01:29:19;5.20;;;3.25;;
68653;SDS011;55636;51.108;13.622;2023-07-22T01:30:26;5.85;;;3.15;;
68653;SDS011;55636;51.108;13.622;2023-07-22T01:31:29;5.95;;;3.55;;
68653;SDS011;55636;51.108;13.622;2023-07-22T01:32:32;6.35;;;3.15;;
68653;SDS011;55636;51.108;13.622;2023-07-22T01:33:35;7.85;;;3.05;;
68653;SDS011;55636;51.108;13.622;2023-07-22T01:34:38;6.90;;;3.22;;
68653;SDS011;55636;51.108;13.622;2023-07-22T01:35:41;6.60;;;3.47;;
68653;SDS011;55636;51.108;13.622;2023-07-22T01:36:44;7.13;;;3.55;;
68653;SDS011;55636;51.108;13.622;2023-07-22T01:37:49;6.20;;;3.63;;
68653;SDS011;55636;51.108;13.622;2023-07-22T01:38:52;3.70;;;3.15;;
68653;SDS011;55636;51.108;13.622;2023-07-22T01:39:54;6.88;;;2.92;;
68653;SDS011;55636;51.108;13.622;2023-07-22T01:40:59;4.10;;;3.10;;
68653;SDS011;55636;51.108;13.622;2023-07-22T01:42:02;7.75;;;3.13;;
68653;SDS011;55636;51.108;13.622;2023-07-22T01:43:11;6.13;;;3.20;;
68653;SDS011;55636;51.108;13.622;2023-07-22T01:44:13;4.43;;;3.13;;
68653;SDS011;55636;51.108;13.622;2023-07-22T01:45:16;7.07;;;3.20;;
68653;SDS011;55636;51.108;13.622;2023-07-22T01:46:19;4.70;;;3.20;;
68653;SDS011;55636;51.108;13.622;2023-07-22T01:47:22;4.10;;;3.05;;
68653;SDS011;55636;51.108;13.622;2023-07-22T01:48:25;6.47;;;3.45;;
68653;SDS011;55636;51.108;13.622;2023-07-22T01:49:27;4.38;;;3.03;;
68653;SDS011;55636;51.108;13.622;2023-07-22T01:50:30;5.32;;;3.22;;
68653;SDS011;55636;51.108;13.622;2023-07-22T01:51:32;4.40;;;3.08;;
68653;SDS011;55636;51.108;13.622;2023-07-22T01:52:34;5.03;;;2.97;;
68653;SDS011;55636;51.108;13.622;2023-07-22T01:53:37;3.80;;;3.05;;
68653;SDS011;55636;51.108;13.622;2023-07-22T01:54:40;6.13;;;3.28;;
68653;SDS011;55636;51.108;13.622;2023-07-22T01:55:43;3.90;;;3.50;;
68653;SDS011;55636;51.108;13.622;2023-07-22T01:56:46;4.75;;;3.22;;
68653;SDS011;55636;51.108;13.622;2023-07-22T01:57:48;4.00;;;3.30;;
68653;SDS011;55636;51.108;13.622;2023-07-22T01:58:52;4.63;;;3.30;;
68653;SDS011;55636;51.108;13.622;2023-07-22T01:59:55;4.88;;;3.30;;
68653;SDS011;55636;51.108;13.622;2023-07-22T02:00:57;4.57;;;3.30;;
68653;SDS011;55636;51.108;13.622;2023-07-22T02:02:00;5.18;;;3.15;;
68653;SDS011;55636;51.108;13.622;2023-07-22T02:03:03;3.92;;;3.15;;
68653;SDS011;55636;51.108;13.622;2023-07-22T02:04:06;7.68;;;3.50;;
68653;SDS011;55636;51.108;13.622;2023-07-22T02:05:09;4.68;;;3.40;;
68653;SDS011;55636;51.108;13.622;2023-07-22T02:06:13;5.22;;;3.80;;
68653;SDS011;55636;51.108;13.622;2023-07-22T02:07:15;3.30;;;3.00;;
68653;SDS011;55636;51.108;13.622;2023-07-22T02:08:18;6.60;;;3.55;;
68653;SDS011;55636;51.108;13.622;2023-07-22T02:09:20;3.97;;;3.40;;
68653;SDS011;55636;51.108;13.622;2023-07-22T02:10:23;3.78;;;3.13;;
68653;SDS011;55636;51.108;13.622;2023-07-22T02:11:25;6.32;;;3.53;;
68653;SDS011;55636;51.108;13.622;2023-07-22T02:12:28;5.85;;;3.60;;
68653;SDS011;55636;51.108;13.622;2023-07-22T02:13:30;5.55;;;3.38;;
68653;SDS011;55636;51.108;13.622;2023-07-22T02:14:33;6.25;;;3.40;;
68653;SDS011;55636;51.108;13.622;2023-07-22T02:15:37;5.32;;;3.70;;
68653;SDS011;55636;51.108;13.622;2023-07-22T02:16:39;5.18;;;3.28;;
68653;SDS011;55636;51.108;13.622;2023-07-22T02:17:42;5.05;;;3.30;;
68653;SDS011;55636;51.108;13.622;2023-07-22T02:18:45;5.55;;;3.70;;
68653;SDS011;55636;51.108;13.622;2023-07-22T02:19:47;6.30;;;3.80;;
68653;SDS011;55636;51.108;13.622;2023-07-22T02:20:50;4.22;;;3.40;;
68653;SDS011;55636;51.108;13.622;2023-07-22T02:21:52;7.13;;;3.55;;
68653;SDS011;55636;51.108;13.622;2023-07-22T02:22:55;6.25;;;3.35;;
68653;SDS011;55636;51.108;13.622;2023-07-22T02:23:59;4.28;;;3.38;;
68653;SDS011;55636;51.108;13.622;2023-07-22T02:25:01;6.00;;;3.47;;
68653;SDS011;55636;51.108;13.622;2023-07-22T02:26:05;5.38;;;3.63;;
68653;SDS011;55636;51.108;13.622;2023-07-22T02:27:07;7.78;;;3.65;;
68653;SDS011;55636;51.108;13.622;2023-07-22T02:28:10;7.28;;;3.55;;
68653;SDS011;55636;51.108;13.622;2023-07-22T02:29:14;4.78;;;3.25;;
68653;SDS011;55636;51.108;13.622;2023-07-22T02:30:16;4.05;;;3.35;;
68653;SDS011;55636;51.108;13.622;2023-07-22T02:31:21;6.75;;;3.30;;
68653;SDS011;55636;51.108;13.622;2023-07-22T02:32:24;8.80;;;3.40;;
68653;SDS011;55636;51.108;13.622;2023-07-22T02:33:27;4.13;;;3.30;;
68653;SDS011;55636;51.108;13.622;2023-07-22T02:34:29;5.40;;;3.30;;
68653;SDS011;55636;51.108;13.622;2023-07-22T02:35:32;6.72;;;3.10;;
68653;SDS011;55636;51.108;13.622;2023-07-22T02:36:35;4.03;;;3.25;;
68653;SDS011;55636;51.108;13.622;2023-07-22T02:37:38;10.10;;;3.80;;
68653;SDS011;55636;51.108;13.622;2023-07-22T02:38:41;4.93;;;3.28;;
68653;SDS011;55636;51.108;13.622;2023-07-22T02:39:43;6.57;;;3.40;;
68653;SDS011;55636;51.108;13.622;2023-07-22T02:40:47;4.82;;;3.50;;
68653;SDS011;55636;51.108;13.622;2023-07-22T02:41:50;6.10;;;3.40;;
68653;SDS011;55636;51.108;13.622;2023-07-22T02:42:53;4.38;;;3.20;;
68653;SDS011;55636;51.108;13.622;2023-07-22T02:43:56;7.47;;;3.50;;
68653;SDS011;55636;51.108;13.622;2023-07-22T02:44:58;3.90;;;2.90;;
68653;SDS011;55636;51.108;13.622;2023-07-22T02:46:01;6.05;;;3.47;;
68653;SDS011;55636;51.108;13.622;2023-07-22T02:47:06;3.70;;;3.22;;
68653;SDS011;55636;51.108;13.622;2023-07-22T02:48:08;6.32;;;3.58;;
68653;SDS011;55636;51.108;13.622;2023-07-22T02:49:11;5.40;;;3.58;;
68653;SDS011;55636;51.108;13.622;2023-07-22T02:50:13;6.40;;;3.22;;
68653;SDS011;55636;51.108;13.622;2023-07-22T02:51:16;5.90;;;3.15;;
68653;SDS011;55636;51.108;13.622;2023-07-22T02:52:18;4.20;;;3.50;;
68653;SDS011;55636;51.108;13.622;2023-07-22T02:53:21;6.20;;;3.60;;
68653;SDS011;55636;51.108;13.622;2023-07-22T02:54:23;7.50;;;3.35;;
68653;SDS011;55636;51.108;13.622;2023-07-22T02:55:26;4.90;;;3.60;;
68653;SDS011;55636;51.108;13.622;2023-07-22T02:56:28;7.13;;;3.38;;
68653;SDS011;55636;51.108;13.622;2023-07-22T02:57:31;6.05;;;3.22;;
68653;SDS011;55636;51.108;13.622;2023-07-22T02:58:34;3.83;;;3.20;;
68653;SDS011;55636;51.108;13.622;2023-07-22T02:59:36;4.80;;;3.45;;
68653;SDS011;55636;51.108;13.622;2023-07-22T03:00:39;6.15;;;3.28;;
68653;SDS011;55636;51.108;13.622;2023-07-22T03:01:41;7.55;;;3.22;;
68653;SDS011;55636;51.108;13.622;2023-07-22T03:02:45;5.43;;;3.47;;
68653;SDS011;55636;51.108;13.622;2023-07-22T03:03:48;4.80;;;3.40;;
68653;SDS011;55636;51.108;13.622;2023-07-22T03:04:51;4.70;;;3.20;;
68653;SDS011;55636;51.108;13.622;2023-07-22T03:05:53;6.38;;;3.58;;
68653;SDS011;55636;51.108;13.622;2023-07-22T03:06:55;4.90;;;3.47;;
68653;SDS011;55636;51.108;13.622;2023-07-22T03:07:58;6.32;;;3.80;;
68653;SDS011;55636;51.108;13.622;2023-07-22T03:09:01;5.80;;;3.80;;
68653;SDS011;55636;51.108;13.622;2023-07-22T03:10:07;5.00;;;3.35;;
68653;SDS011;55636;51.108;13.622;2023-07-22T03:11:10;7.88;;;3.63;;
68653;SDS011;55636;51.108;13.622;2023-07-22T03:12:13;6.20;;;3.35;;
68653;SDS011;55636;51.108;13.622;2023-07-22T03:13:17;6.80;;;3.53;;
68653;SDS011;55636;51.108;13.622;2023-07-22T03:14:20;6.32;;;3.97;;
68653;SDS011;55636;51.108;13.622;2023-07-22T03:15:24;5.95;;;3.60;;
68653;SDS011;55636;51.108;13.622;2023-07-22T03:16:30;5.57;;;3.55;;
68653;SDS011;55636;51.108;13.622;2023-07-22T03:17:34;5.90;;;3.72;;
68653;SDS011;55636;51.108;13.622;2023-07-22T03:18:38;7.50;;;3.58;;
68653;SDS011;55636;51.108;13.622;2023-07-22T03:19:42;6.60;;;3.55;;
68653;SDS011;55636;51.108;13.622;2023-07-22T03:20:44;6.10;;;3.67;;
68653;SDS011;55636;51.108;13.622;2023-07-22T03:21:47;4.40;;;3.45;;
68653;SDS011;55636;51.108;13.622;2023-07-22T03:22:50;4.25;;;3.50;;
68653;SDS011;55636;51.108;13.622;2023-07-22T03:23:53;6.93;;;3.47;;
68653;SDS011;55636;51.108;13.622;2023-07-22T03:24:55;5.18;;;3.45;;
68653;SDS011;55636;51.108;13.622;2023-07-22T03:25:58;8.27;;;4.00;;
68653;SDS011;55636;51.108;13.622;2023-07-22T03:27:01;8.02;;;3.55;;
68653;SDS011;55636;51.108;13.622;2023-07-22T03:28:04;6.50;;;3.95;;
68653;SDS011;55636;51.108;13.622;2023-07-22T03:29:07;6.18;;;3.72;;
68653;SDS011;55636;51.108;13.622;2023-07-22T03:30:11;4.43;;;3.60;;
68653;SDS011;55636;51.108;13.622;2023-07-22T03:31:18;8.38;;;3.63;;
68653;SDS011;55636;51.108;13.622;2023-07-22T03:32:21;6.65;;;3.80;;
68653;SDS011;55636;51.108;13.622;2023-07-22T03:33:23;7.55;;;3.53;;
68653;SDS011;55636;51.108;13.622;2023-07-22T03:34:26;5.90;;;3.70;;
68653;SDS011;55636;51.108;13.622;2023-07-22T03:35:29;4.50;;;3.47;;
68653;SDS011;55636;51.108;13.622;2023-07-22T03:36:32;7.95;;;3.63;;
68653;SDS011;55636;51.108;13.622;2023-07-22T03:37:37;8.85;;;3.80;;
68653;SDS011;55636;51.108;13.622;2023-07-22T03:38:40;7.63;;;3.67;;
68653;SDS011;55636;51.108;13.622;2023-07-22T03:39:42;8.00;;;4.03;;
68653;SDS011;55636;51.108;13.622;2023-07-22T03:40:44;5.00;;;3.78;;
68653;SDS011;55636;51.108;13.622;2023-07-22T03:41:47;9.52;;;4.45;;
68653;SDS011;55636;51.108;13.622;2023-07-22T03:42:50;7.85;;;3.90;;
68653;SDS011;55636;51.108;13.622;2023-07-22T03:43:54;8.80;;;3.88;;
68653;SDS011;55636;51.108;13.622;2023-07-22T03:44:56;4.55;;;3.55;;
68653;SDS011;55636;51.108;13.622;2023-07-22T03:45:58;6.47;;;3.80;;
68653;SDS011;55636;51.108;13.622;2023-07-22T03:47:01;6.63;;;3.38;;
68653;SDS011;55636;51.108;13.622;2023-07-22T03:48:03;4.97;;;3.65;;
68653;SDS011;55636;51.108;13.622;2023-07-22T03:49:06;6.72;;;3.92;;
68653;SDS011;55636;51.108;13.622;2023-07-22T03:50:09;7.40;;;4.15;;
68653;SDS011;55636;51.108;13.622;2023-07-22T03:51:11;7.47;;;4.05;;
68653;SDS011;55636;51.108;13.622;2023-07-22T03:53:25;8.02;;;4.07;;
68653;SDS011;55636;51.108;13.622;2023-07-22T03:54:27;7.47;;;3.60;;
68653;SDS011;55636;51.108;13.622;2023-07-22T03:55:30;5.95;;;3.78;;
68653;SDS011;55636;51.108;13.622;2023-07-22T03:56:32;4.85;;;3.72;;
68653;SDS011;55636;51.108;13.622;2023-07-22T03:57:35;8.13;;;3.80;;
68653;SDS011;55636;51.108;13.622;2023-07-22T03:58:39;5.80;;;3.53;;
68653;SDS011;55636;51.108;13.622;2023-07-22T03:59:41;9.77;;;3.80;;
68653;SDS011;55636;51.108;13.622;2023-07-22T04:00:47;7.32;;;3.60;;
68653;SDS011;55636;51.108;13.622;2023-07-22T04:01:51;5.55;;;3.65;;
68653;SDS011;55636;51.108;13.622;2023-07-22T04:02:53;8.45;;;3.80;;
68653;SDS011;55636;51.108;13.622;2023-07-22T04:03:56;7.75;;;3.80;;
68653;SDS011;55636;51.108;13.622;2023-07-22T04:04:58;9.07;;;3.92;;
68653;SDS011;55636;51.108;13.622;2023-07-22T04:06:01;6.65;;;3.65;;
68653;SDS011;55636;51.108;13.622;2023-07-22T04:07:04;6.57;;;3.88;;
68653;SDS011;55636;51.108;13.622;2023-07-22T04:08:09;6.43;;;3.60;;
68653;SDS011;55636;51.108;13.622;2023-07-22T04:09:12;5.85;;;3.88;;
68653;SDS011;55636;51.108;13.622;2023-07-22T04:10:16;6.07;;;3.65;;
68653;SDS011;55636;51.108;13.622;2023-07-22T04:11:19;6.93;;;3.83;;
68653;SDS011;55636;51.108;13.622;2023-07-22T04:12:21;4.72;;;3.40;;
68653;SDS011;55636;51.108;13.622;2023-07-22T04:13:25;6.88;;;3.58;;
68653;SDS011;55636;51.108;13.622;2023-07-22T04:14:28;6.47;;;3.67;;
68653;SDS011;55636;51.108;13.622;2023-07-22T04:15:33;7.15;;;3.90;;
68653;SDS011;55636;51.108;13.622;2023-07-22T04:16:35;8.50;;;3.95;;
68653;SDS011;55636;51.108;13.622;2023-07-22T04:17:38;6.85;;;3.70;;
68653;SDS011;55636;51.108;13.622;2023-07-22T04:18:41;5.45;;;3.90;;
68653;SDS011;55636;51.108;13.622;2023-07-22T04:19:44;5.63;;;3.50;;
68653;SDS011;55636;51.108;13.622;2023-07-22T04:20:48;5.88;;;3.67;;
68653;SDS011;55636;51.108;13.622;2023-07-22T04:21:58;5.60;;;3.60;;
68653;SDS011;55636;51.108;13.622;2023-07-22T04:23:01;6.57;;;3.70;;
68653;SDS011;55636;51.108;13.622;2023-07-22T04:24:03;9.65;;;3.80;;
68653;SDS011;55636;51.108;13.622;2023-07-22T04:25:06;6.30;;;3.58;;
68653;SDS011;55636;51.108;13.622;2023-07-22T04:26:11;5.05;;;3.50;;
68653;SDS011;55636;51.108;13.622;2023-07-22T04:27:13;7.18;;;3.70;;
68653;SDS011;55636;51.108;13.622;2023-07-22T04:28:17;4.40;;;3.25;;
68653;SDS011;55636;51.108;13.622;2023-07-22T04:29:20;5.07;;;3.28;;
68653;SDS011;55636;51.108;13.622;2023-07-22T04:30:24;4.80;;;3.13;;
68653;SDS011;55636;51.108;13.622;2023-07-22T04:31:28;6.68;;;3.60;;
68653;SDS011;55636;51.108;13.622;2023-07-22T04:32:32;5.25;;;3.75;;
68653;SDS011;55636;51.108;13.622;2023-07-22T04:33:34;7.93;;;3.50;;
68653;SDS011;55636;51.108;13.622;2023-07-22T04:34:37;5.55;;;3.55;;
68653;SDS011;55636;51.108;13.622;2023-07-22T04:35:40;6.78;;;4.00;;
68653;SDS011;55636;51.108;13.622;2023-07-22T04:36:43;7.13;;;3.60;;
68653;SDS011;55636;51.108;13.622;2023-07-22T04:37:46;7.82;;;3.50;;
68653;SDS011;55636;51.108;13.622;2023-07-22T04:38:49;4.95;;;3.40;;
68653;SDS011;55636;51.108;13.622;2023-07-22T04:39:51;5.32;;;3.50;;
68653;SDS011;55636;51.108;13.622;2023-07-22T04:40:54;11.73;;;3.83;;
68653;SDS011;55636;51.108;13.622;2023-07-22T04:41:56;6.93;;;3.90;;
68653;SDS011;55636;51.108;13.622;2023-07-22T04:43:00;6.40;;;3.70;;
68653;SDS011;55636;51.108;13.622;2023-07-22T04:44:03;4.78;;;3.47;;
68653;SDS011;55636;51.108;13.622;2023-07-22T04:45:06;5.82;;;3.53;;
68653;SDS011;55636;51.108;13.622;2023-07-22T04:46:09;10.13;;;4.00;;
68653;SDS011;55636;51.108;13.622;2023-07-22T04:47:12;6.75;;;3.63;;
68653;SDS011;55636;51.108;13.622;2023-07-22T04:48:15;5.68;;;3.45;;
68653;SDS011;55636;51.108;13.622;2023-07-22T04:49:19;5.22;;;3.35;;
68653;SDS011;55636;51.108;13.622;2023-07-22T04:50:22;6.18;;;3.38;;
68653;SDS011;55636;51.108;13.622;2023-07-22T04:51:25;6.50;;;3.90;;
68653;SDS011;55636;51.108;13.622;2023-07-22T04:52:28;5.72;;;3.05;;
68653;SDS011;55636;51.108;13.622;2023-07-22T04:53:30;5.55;;;3.47;;
68653;SDS011;55636;51.108;13.622;2023-07-22T04:54:33;6.88;;;3.50;;
68653;SDS011;55636;51.108;13.622;2023-07-22T04:55:35;6.25;;;3.10;;
68653;SDS011;55636;51.108;13.622;2023-07-22T04:56:41;7.80;;;3.63;;
68653;SDS011;55636;51.108;13.622;2023-07-22T04:57:44;5.35;;;3.30;;
68653;SDS011;55636;51.108;13.622;2023-07-22T04:58:47;5.18;;;3.30;;
68653;SDS011;55636;51.108;13.622;2023-07-22T04:59:51;3.58;;;3.05;;
68653;SDS011;55636;51.108;13.622;2023-07-22T05:00:54;5.18;;;3.28;;
68653;SDS011;55636;51.108;13.622;2023-07-22T05:01:56;5.68;;;3.58;;
68653;SDS011;55636;51.108;13.622;2023-07-22T05:02:59;4.95;;;3.30;;
68653;SDS011;55636;51.108;13.622;2023-07-22T05:04:02;4.80;;;3.05;;
68653;SDS011;55636;51.108;13.622;2023-07-22T05:05:06;5.88;;;3.33;;
68653;SDS011;55636;51.108;13.622;2023-07-22T05:06:08;6.32;;;3.30;;
68653;SDS011;55636;51.108;13.622;2023-07-22T05:07:11;4.00;;;3.15;;
68653;SDS011;55636;51.108;13.622;2023-07-22T05:08:13;4.88;;;3.38;;
68653;SDS011;55636;51.108;13.622;2023-07-22T05:09:16;4.32;;;3.05;;
68653;SDS011;55636;51.108;13.622;2023-07-22T05:10:18;6.55;;;3.30;;
68653;SDS011;55636;51.108;13.622;2023-07-22T05:11:21;5.35;;;3.25;;
68653;SDS011;55636;51.108;13.622;2023-07-22T05:12:25;4.40;;;3.38;;
68653;SDS011;55636;51.108;13.622;2023-07-22T05:13:27;5.63;;;3.30;;
68653;SDS011;55636;51.108;13.622;2023-07-22T05:14:30;4.03;;;3.20;;
68653;SDS011;55636;51.108;13.622;2023-07-22T05:15:32;5.88;;;3.30;;
68653;SDS011;55636;51.108;13.622;2023-07-22T05:16:35;3.95;;;3.13;;
68653;SDS011;55636;51.108;13.622;2023-07-22T05:17:37;5.00;;;3.20;;
68653;SDS011;55636;51.108;13.622;2023-07-22T05:18:40;7.10;;;3.22;;
68653;SDS011;55636;51.108;13.622;2023-07-22T05:19:43;5.93;;;3.17;;
68653;SDS011;55636;51.108;13.622;2023-07-22T05:20:45;5.13;;;3.20;;
68653;SDS011;55636;51.108;13.622;2023-07-22T05:21:48;6.03;;;3.75;;
68653;SDS011;55636;51.108;13.622;2023-07-22T05:22:50;4.43;;;3.60;;
68653;SDS011;55636;51.108;13.622;2023-07-22T05:23:54;5.25;;;3.50;;
68653;SDS011;55636;51.108;13.622;2023-07-22T05:24:56;5.57;;;4.07;;
68653;SDS011;55636;51.108;13.622;2023-07-22T05:25:58;7.50;;;3.47;;
68653;SDS011;55636;51.108;13.622;2023-07-22T05:27:01;6.90;;;3.63;;
68653;SDS011;55636;51.108;13.622;2023-07-22T05:28:10;4.32;;;3.42;;
68653;SDS011;55636;51.108;13.622;2023-07-22T05:29:13;6.32;;;3.50;;
68653;SDS011;55636;51.108;13.622;2023-07-22T05:30:15;5.63;;;3.30;;
68653;SDS011;55636;51.108;13.622;2023-07-22T05:31:36;4.82;;;3.42;;
68653;SDS011;55636;51.108;13.622;2023-07-22T05:32:39;4.80;;;3.38;;
68653;SDS011;55636;51.108;13.622;2023-07-22T05:33:41;6.55;;;3.70;;
68653;SDS011;55636;51.108;13.622;2023-07-22T05:34:44;5.85;;;3.40;;
68653;SDS011;55636;51.108;13.622;2023-07-22T05:35:46;4.18;;;3.30;;
68653;SDS011;55636;51.108;13.622;2023-07-22T05:36:50;5.00;;;3.35;;
68653;SDS011;55636;51.108;13.622;2023-07-22T05:37:52;4.95;;;3.30;;
68653;SDS011;55636;51.108;13.622;2023-07-22T05:38:55;5.00;;;3.10;;
68653;SDS011;55636;51.108;13.622;2023-07-22T05:39:59;3.40;;;3.10;;
68653;SDS011;55636;51.108;13.622;2023-07-22T05:41:03;3.97;;;3.25;;
68653;SDS011;55636;51.108;13.622;2023-07-22T05:42:06;4.72;;;3.20;;
68653;SDS011;55636;51.108;13.622;2023-07-22T05:43:08;5.00;;;2.97;;
68653;SDS011;55636;51.108;13.622;2023-07-22T05:44:11;3.50;;;2.80;;
68653;SDS011;55636;51.108;13.622;2023-07-22T05:45:13;5.57;;;3.20;;
68653;SDS011;55636;51.108;13.622;2023-07-22T05:46:17;7.80;;;3.17;;
68653;SDS011;55636;51.108;13.622;2023-07-22T05:47:19;4.95;;;3.20;;
68653;SDS011;55636;51.108;13.622;2023-07-22T05:48:22;5.80;;;2.95;;
68653;SDS011;55636;51.108;13.622;2023-07-22T05:49:24;4.57;;;3.50;;
68653;SDS011;55636;51.108;13.622;2023-07-22T05:50:27;3.92;;;3.17;;
68653;SDS011;55636;51.108;13.622;2023-07-22T05:51:29;3.67;;;2.95;;
68653;SDS011;55636;51.108;13.622;2023-07-22T05:52:31;3.40;;;3.08;;
68653;SDS011;55636;51.108;13.622;2023-07-22T05:53:34;4.35;;;3.05;;
68653;SDS011;55636;51.108;13.622;2023-07-22T05:54:36;6.85;;;3.53;;
68653;SDS011;55636;51.108;13.622;2023-07-22T05:55:39;4.90;;;3.40;;
68653;SDS011;55636;51.108;13.622;2023-07-22T05:56:41;3.92;;;3.30;;
68653;SDS011;55636;51.108;13.622;2023-07-22T05:57:44;4.88;;;3.50;;
68653;SDS011;55636;51.108;13.622;2023-07-22T05:58:46;4.07;;;3.10;;
68653;SDS011;55636;51.108;13.622;2023-07-22T05:59:49;4.30;;;3.60;;
68653;SDS011;55636;51.108;13.622;2023-07-22T06:01:12;6.25;;;3.35;;
68653;SDS011;55636;51.108;13.622;2023-07-22T06:02:17;4.53;;;3.38;;
68653;SDS011;55636;51.108;13.622;2023-07-22T06:03:20;3.45;;;3.08;;
68653;SDS011;55636;51.108;13.622;2023-07-22T06:04:23;4.03;;;3.20;;
68653;SDS011;55636;51.108;13.622;2023-07-22T06:05:26;3.92;;;3.28;;
68653;SDS011;55636;51.108;13.622;2023-07-22T06:06:28;3.42;;;3.13;;
68653;SDS011;55636;51.108;13.622;2023-07-22T06:07:31;5.78;;;3.30;;
68653;SDS011;55636;51.108;13.622;2023-07-22T06:08:36;5.32;;;3.60;;
68653;SDS011;55636;51.108;13.622;2023-07-22T06:09:38;4.15;;;3.50;;
68653;SDS011;55636;51.108;13.622;2023-07-22T06:10:41;4.22;;;3.60;;
68653;SDS011;55636;51.108;13.622;2023-07-22T06:11:46;4.63;;;3.78;;
68653;SDS011;55636;51.108;13.622;2023-07-22T06:12:48;4.78;;;3.80;;
68653;SDS011;55636;51.108;13.622;2023-07-22T06:13:50;3.90;;;3.50;;
68653;SDS011;55636;51.108;13.622;2023-07-22T06:14:53;4.50;;;3.55;;
68653;SDS011;55636;51.108;13.622;2023-07-22T06:15:56;6.18;;;3.60;;